sensor_id;sensor_type;location;lat;lon;timestamp;P1;durP1;ratioP1;P2;durP2;ratioP2
68800;SDS011;55784;50.734;7.086;2023-05-10T01:55:06;2.38;;;0.65;;
68800;SDS011;55784;50.734;7.086;2023-05-10T01:57:35;3.30;;;0.60;;
68800;SDS011;55784;50.734;7.086;2023-05-10T02:00:03;3.08;;;0.63;;
68800;SDS011;55784;50.734;7.086;2023-05-10T02:02:33;2.53;;;0.63;;
68800;SDS011;55784;50.734;7.086;2023-05-10T02:05:05;3.08;;;0.60;;
68800;SDS011;55784;50.734;7.086;2023-05-10T02:07:46;2.50;;;0.57;;
68800;SDS011;55784;50.734;7.086;2023-05-10T02:10:25;3.07;;;0.60;;
68800;SDS011;55784;50.734;7.086;2023-05-10T02:13:10;2.72;;;0.60;;
68800;SDS011;55784;50.734;7.086;2023-05-10T02:15:50;3.67;;;0.60;;
68800;SDS011;55784;50.734;7.086;2023-05-10T02:25:08;2.87;;;0.60;;
68800;SDS011;55784;50.734;7.086;2023-05-10T02:27:47;3.53;;;0.70;;
68800;SDS011;55784;50.734;7.086;2023-05-10T02:30:20;3.45;;;0.70;;
68800;SDS011;55784;50.734;7.086;2023-05-10T02:37:15;3.10;;;0.50;;
68800;SDS011;55784;50.734;7.086;2023-05-10T02:40:05;3.40;;;0.80;;
68800;SDS011;55784;50.734;7.086;2023-05-10T02:43:20;3.58;;;0.60;;
68800;SDS011;55784;50.734;7.086;2023-05-10T02:45:59;4.75;;;0.80;;
68800;SDS011;55784;50.734;7.086;2023-05-10T02:49:08;4.03;;;0.73;;
68800;SDS011;55784;50.734;7.086;2023-05-10T02:52:15;3.50;;;0.68;;
68800;SDS011;55784;50.734;7.086;2023-05-10T02:54:53;3.90;;;0.73;;
68800;SDS011;55784;50.734;7.086;2023-05-10T02:57:27;3.00;;;0.68;;
68800;SDS011;55784;50.734;7.086;2023-05-10T03:31:12;6.63;;;1.40;;
68800;SDS011;55784;50.734;7.086;2023-05-10T03:33:53;4.90;;;1.30;;
68800;SDS011;55784;50.734;7.086;2023-05-10T03:39:40;6.13;;;1.40;;
68800;SDS011;55784;50.734;7.086;2023-05-10T03:42:19;6.30;;;1.20;;
68800;SDS011;55784;50.734;7.086;2023-05-10T03:45:11;6.85;;;2.40;;
68800;SDS011;55784;50.734;7.086;2023-05-10T03:48:42;6.07;;;1.77;;
68800;SDS011;55784;50.734;7.086;2023-05-10T03:51:28;5.50;;;1.50;;
68800;SDS011;55784;50.734;7.086;2023-05-10T03:54:20;6.13;;;1.80;;
68800;SDS011;55784;50.734;7.086;2023-05-10T03:57:25;6.33;;;1.80;;
68800;SDS011;55784;50.734;7.086;2023-05-10T04:00:47;8.48;;;2.47;;
68800;SDS011;55784;50.734;7.086;2023-05-10T04:03:52;7.32;;;2.17;;
68800;SDS011;55784;50.734;7.086;2023-05-10T04:06:44;7.38;;;2.50;;
68800;SDS011;55784;50.734;7.086;2023-05-10T04:09:40;9.02;;;2.92;;
68800;SDS011;55784;50.734;7.086;2023-05-10T04:12:38;8.63;;;2.90;;
68800;SDS011;55784;50.734;7.086;2023-05-10T04:18:39;9.63;;;3.40;;
68800;SDS011;55784;50.734;7.086;2023-05-10T04:21:42;8.90;;;3.20;;
68800;SDS011;55784;50.734;7.086;2023-05-10T04:24:33;9.05;;;3.15;;
68800;SDS011;55784;50.734;7.086;2023-05-10T05:05:50;13.35;;;5.25;;
68800;SDS011;55784;50.734;7.086;2023-05-10T05:08:15;13.05;;;5.30;;
68800;SDS011;55784;50.734;7.086;2023-05-10T05:10:44;15.60;;;6.13;;
68800;SDS011;55784;50.734;7.086;2023-05-10T05:13:22;15.45;;;5.70;;
68800;SDS011;55784;50.734;7.086;2023-05-10T05:15:50;14.75;;;5.35;;
68800;SDS011;55784;50.734;7.086;2023-05-10T05:18:15;14.00;;;5.57;;
68800;SDS011;55784;50.734;7.086;2023-05-10T05:20:41;15.37;;;5.60;;
68800;SDS011;55784;50.734;7.086;2023-05-10T05:23:10;13.68;;;5.32;;
68800;SDS011;55784;50.734;7.086;2023-05-10T05:25:41;13.10;;;5.53;;
68800;SDS011;55784;50.734;7.086;2023-05-10T05:30:34;12.27;;;5.05;;
68800;SDS011;55784;50.734;7.086;2023-05-10T05:33:00;14.37;;;5.40;;
68800;SDS011;55784;50.734;7.086;2023-05-10T05:35:25;12.27;;;5.13;;
68800;SDS011;55784;50.734;7.086;2023-05-10T05:37:51;14.10;;;5.57;;
68800;SDS011;55784;50.734;7.086;2023-05-10T05:40:16;12.43;;;4.77;;
68800;SDS011;55784;50.734;7.086;2023-05-10T05:42:41;13.43;;;5.40;;
68800;SDS011;55784;50.734;7.086;2023-05-10T05:45:07;12.30;;;4.97;;
68800;SDS011;55784;50.734;7.086;2023-05-10T05:47:33;13.30;;;5.13;;
68800;SDS011;55784;50.734;7.086;2023-05-10T05:49:59;12.07;;;4.37;;
68800;SDS011;55784;50.734;7.086;2023-05-10T05:52:24;13.37;;;4.73;;
68800;SDS011;55784;50.734;7.086;2023-05-10T05:54:50;12.40;;;5.30;;
68800;SDS011;55784;50.734;7.086;2023-05-10T05:57:15;10.40;;;4.53;;
68800;SDS011;55784;50.734;7.086;2023-05-10T05:59:40;10.50;;;4.57;;
68800;SDS011;55784;50.734;7.086;2023-05-10T06:02:09;11.43;;;4.45;;
68800;SDS011;55784;50.734;7.086;2023-05-10T06:04:34;10.80;;;4.00;;
68800;SDS011;55784;50.734;7.086;2023-05-10T06:07:00;10.07;;;4.07;;
68800;SDS011;55784;50.734;7.086;2023-05-10T06:09:25;11.05;;;4.07;;
68800;SDS011;55784;50.734;7.086;2023-05-10T06:11:50;10.07;;;4.00;;
68800;SDS011;55784;50.734;7.086;2023-05-10T06:14:16;10.10;;;3.70;;
68800;SDS011;55784;50.734;7.086;2023-05-10T06:16:41;9.67;;;3.70;;
68800;SDS011;55784;50.734;7.086;2023-05-10T06:19:06;9.87;;;3.63;;
68800;SDS011;55784;50.734;7.086;2023-05-10T06:21:32;9.27;;;3.83;;
68800;SDS011;55784;50.734;7.086;2023-05-10T06:23:57;9.97;;;4.20;;
68800;SDS011;55784;50.734;7.086;2023-05-10T06:26:22;8.97;;;3.20;;
68800;SDS011;55784;50.734;7.086;2023-05-10T06:28:48;9.13;;;3.70;;
68800;SDS011;55784;50.734;7.086;2023-05-10T06:31:13;10.68;;;3.47;;
68800;SDS011;55784;50.734;7.086;2023-05-10T06:33:38;8.40;;;3.23;;
68800;SDS011;55784;50.734;7.086;2023-05-10T06:36:04;8.43;;;3.10;;
68800;SDS011;55784;50.734;7.086;2023-05-10T06:38:29;8.67;;;3.10;;
68800;SDS011;55784;50.734;7.086;2023-05-10T06:40:55;8.30;;;3.10;;
68800;SDS011;55784;50.734;7.086;2023-05-10T06:43:20;7.72;;;2.80;;
68800;SDS011;55784;50.734;7.086;2023-05-10T06:45:50;7.32;;;2.90;;
68800;SDS011;55784;50.734;7.086;2023-05-10T06:48:15;9.57;;;3.30;;
68800;SDS011;55784;50.734;7.086;2023-05-10T06:50:40;8.33;;;2.93;;
68800;SDS011;55784;50.734;7.086;2023-05-10T06:53:06;7.35;;;3.00;;
68800;SDS011;55784;50.734;7.086;2023-05-10T06:55:31;9.37;;;2.97;;
68800;SDS011;55784;50.734;7.086;2023-05-10T06:57:56;9.57;;;2.50;;
68800;SDS011;55784;50.734;7.086;2023-05-10T07:00:22;6.90;;;2.40;;
68800;SDS011;55784;50.734;7.086;2023-05-10T07:02:47;7.93;;;2.63;;
68800;SDS011;55784;50.734;7.086;2023-05-10T07:05:13;7.30;;;2.63;;
68800;SDS011;55784;50.734;7.086;2023-05-10T07:07:39;7.90;;;2.60;;
68800;SDS011;55784;50.734;7.086;2023-05-10T07:10:04;8.60;;;2.90;;
68800;SDS011;55784;50.734;7.086;2023-05-10T07:12:30;7.30;;;2.53;;
68800;SDS011;55784;50.734;7.086;2023-05-10T07:14:55;7.90;;;2.97;;
68800;SDS011;55784;50.734;7.086;2023-05-10T07:17:21;9.17;;;3.60;;
68800;SDS011;55784;50.734;7.086;2023-05-10T07:19:46;8.40;;;2.70;;
68800;SDS011;55784;50.734;7.086;2023-05-10T07:22:11;9.23;;;2.97;;
68800;SDS011;55784;50.734;7.086;2023-05-10T07:24:37;8.93;;;3.70;;
68800;SDS011;55784;50.734;7.086;2023-05-10T07:27:02;9.50;;;3.40;;
68800;SDS011;55784;50.734;7.086;2023-05-10T07:29:27;9.70;;;3.23;;
68800;SDS011;55784;50.734;7.086;2023-05-10T07:31:53;7.53;;;2.85;;
68800;SDS011;55784;50.734;7.086;2023-05-10T07:34:19;8.00;;;3.20;;
68800;SDS011;55784;50.734;7.086;2023-05-10T07:36:44;8.10;;;2.90;;
68800;SDS011;55784;50.734;7.086;2023-05-10T07:39:09;9.50;;;2.67;;
68800;SDS011;55784;50.734;7.086;2023-05-10T07:41:35;6.97;;;2.50;;
68800;SDS011;55784;50.734;7.086;2023-05-10T07:44:02;7.83;;;2.33;;
68800;SDS011;55784;50.734;7.086;2023-05-10T07:46:28;8.05;;;2.85;;
68800;SDS011;55784;50.734;7.086;2023-05-10T07:48:53;7.53;;;2.80;;
68800;SDS011;55784;50.734;7.086;2023-05-10T07:51:19;8.07;;;2.83;;
68800;SDS011;55784;50.734;7.086;2023-05-10T07:53:44;7.18;;;2.70;;
68800;SDS011;55784;50.734;7.086;2023-05-10T07:56:19;7.70;;;2.63;;
68800;SDS011;55784;50.734;7.086;2023-05-10T07:58:46;7.60;;;2.70;;
68800;SDS011;55784;50.734;7.086;2023-05-10T08:01:12;7.30;;;2.75;;
68800;SDS011;55784;50.734;7.086;2023-05-10T08:03:37;6.93;;;2.50;;
68800;SDS011;55784;50.734;7.086;2023-05-10T08:06:02;6.83;;;2.60;;
68800;SDS011;55784;50.734;7.086;2023-05-10T08:08:28;8.30;;;2.83;;
68800;SDS011;55784;50.734;7.086;2023-05-10T08:10:53;6.50;;;2.37;;
68800;SDS011;55784;50.734;7.086;2023-05-10T08:13:19;6.47;;;2.08;;
68800;SDS011;55784;50.734;7.086;2023-05-10T08:15:44;6.53;;;2.10;;
68800;SDS011;55784;50.734;7.086;2023-05-10T08:18:09;6.60;;;2.47;;
68800;SDS011;55784;50.734;7.086;2023-05-10T08:20:35;6.53;;;2.30;;
68800;SDS011;55784;50.734;7.086;2023-05-10T08:23:00;6.83;;;2.37;;
68800;SDS011;55784;50.734;7.086;2023-05-10T08:25:25;6.83;;;2.10;;
68800;SDS011;55784;50.734;7.086;2023-05-10T08:27:51;7.83;;;2.13;;
68800;SDS011;55784;50.734;7.086;2023-05-10T08:30:16;7.27;;;1.87;;
68800;SDS011;55784;50.734;7.086;2023-05-10T08:32:42;5.85;;;2.08;;
68800;SDS011;55784;50.734;7.086;2023-05-10T08:35:07;6.17;;;1.80;;
68800;SDS011;55784;50.734;7.086;2023-05-10T08:37:32;5.73;;;1.97;;
68800;SDS011;55784;50.734;7.086;2023-05-10T08:39:58;5.87;;;1.87;;
68800;SDS011;55784;50.734;7.086;2023-05-10T08:42:23;6.67;;;1.90;;
68800;SDS011;55784;50.734;7.086;2023-05-10T08:44:53;5.43;;;1.73;;
68800;SDS011;55784;50.734;7.086;2023-05-10T08:47:19;5.65;;;1.80;;
68800;SDS011;55784;50.734;7.086;2023-05-10T08:49:45;6.95;;;2.00;;
68800;SDS011;55784;50.734;7.086;2023-05-10T08:52:13;5.90;;;2.00;;
68800;SDS011;55784;50.734;7.086;2023-05-10T08:54:41;6.57;;;2.40;;
68800;SDS011;55784;50.734;7.086;2023-05-10T08:57:07;7.95;;;2.10;;
68800;SDS011;55784;50.734;7.086;2023-05-10T08:59:33;6.97;;;2.10;;
68800;SDS011;55784;50.734;7.086;2023-05-10T09:01:58;7.63;;;2.50;;
68800;SDS011;55784;50.734;7.086;2023-05-10T09:04:25;7.50;;;2.40;;
68800;SDS011;55784;50.734;7.086;2023-05-10T09:06:52;5.38;;;1.77;;
68800;SDS011;55784;50.734;7.086;2023-05-10T09:09:18;5.00;;;1.60;;
68800;SDS011;55784;50.734;7.086;2023-05-10T09:11:45;5.10;;;1.00;;
68800;SDS011;55784;50.734;7.086;2023-05-10T09:14:11;3.83;;;0.88;;
68800;SDS011;55784;50.734;7.086;2023-05-10T09:16:38;3.67;;;1.10;;
68800;SDS011;55784;50.734;7.086;2023-05-10T09:19:03;4.10;;;0.90;;
68800;SDS011;55784;50.734;7.086;2023-05-10T09:21:29;3.57;;;0.80;;
68800;SDS011;55784;50.734;7.086;2023-05-10T09:23:55;2.88;;;0.70;;
68800;SDS011;55784;50.734;7.086;2023-05-10T09:26:24;3.90;;;0.70;;
68800;SDS011;55784;50.734;7.086;2023-05-10T09:28:50;3.15;;;0.60;;
68800;SDS011;55784;50.734;7.086;2023-05-10T09:31:22;4.13;;;0.80;;
68800;SDS011;55784;50.734;7.086;2023-05-10T09:33:50;4.23;;;1.00;;
68800;SDS011;55784;50.734;7.086;2023-05-10T09:36:16;4.70;;;1.10;;
68800;SDS011;55784;50.734;7.086;2023-05-10T09:38:45;3.90;;;0.82;;
68800;SDS011;55784;50.734;7.086;2023-05-10T09:41:23;3.63;;;0.80;;
68800;SDS011;55784;50.734;7.086;2023-05-10T09:43:50;3.65;;;0.70;;
68800;SDS011;55784;50.734;7.086;2023-05-10T09:46:19;5.60;;;1.00;;
68800;SDS011;55784;50.734;7.086;2023-05-10T09:48:46;5.68;;;1.48;;
68800;SDS011;55784;50.734;7.086;2023-05-10T09:51:22;3.07;;;0.77;;
68800;SDS011;55784;50.734;7.086;2023-05-10T09:54:11;4.72;;;1.00;;
68800;SDS011;55784;50.734;7.086;2023-05-10T09:56:40;3.45;;;0.98;;
68800;SDS011;55784;50.734;7.086;2023-05-10T09:59:07;4.85;;;1.13;;
68800;SDS011;55784;50.734;7.086;2023-05-10T10:01:35;3.20;;;0.88;;
68800;SDS011;55784;50.734;7.086;2023-05-10T10:04:02;4.63;;;1.00;;
68800;SDS011;55784;50.734;7.086;2023-05-10T10:06:29;4.68;;;1.00;;
68800;SDS011;55784;50.734;7.086;2023-05-10T10:08:55;4.45;;;1.10;;
68800;SDS011;55784;50.734;7.086;2023-05-10T10:11:21;4.47;;;1.35;;
68800;SDS011;55784;50.734;7.086;2023-05-10T10:13:48;6.43;;;1.90;;
68800;SDS011;55784;50.734;7.086;2023-05-10T10:16:14;6.20;;;2.00;;
68800;SDS011;55784;50.734;7.086;2023-05-10T10:18:39;6.40;;;2.00;;
68800;SDS011;55784;50.734;7.086;2023-05-10T10:21:06;6.57;;;2.00;;
68800;SDS011;55784;50.734;7.086;2023-05-10T10:23:34;6.95;;;2.10;;
68800;SDS011;55784;50.734;7.086;2023-05-10T10:26:00;7.50;;;2.67;;
68800;SDS011;55784;50.734;7.086;2023-05-10T10:28:39;7.87;;;2.60;;
68800;SDS011;55784;50.734;7.086;2023-05-10T10:31:17;9.27;;;3.13;;
68800;SDS011;55784;50.734;7.086;2023-05-10T10:36:25;7.65;;;2.50;;
68800;SDS011;55784;50.734;7.086;2023-05-10T10:38:58;7.70;;;2.65;;
68800;SDS011;55784;50.734;7.086;2023-05-10T10:41:29;8.13;;;2.30;;
68800;SDS011;55784;50.734;7.086;2023-05-10T10:47:03;5.43;;;1.55;;
68800;SDS011;55784;50.734;7.086;2023-05-10T10:49:33;7.10;;;1.70;;
68800;SDS011;55784;50.734;7.086;2023-05-10T10:52:15;5.22;;;1.50;;
68800;SDS011;55784;50.734;7.086;2023-05-10T10:54:58;7.13;;;1.90;;
68800;SDS011;55784;50.734;7.086;2023-05-10T10:57:25;4.32;;;1.33;;
68800;SDS011;55784;50.734;7.086;2023-05-10T10:59:51;4.20;;;1.10;;
68800;SDS011;55784;50.734;7.086;2023-05-10T11:07:54;4.97;;;1.73;;
68800;SDS011;55784;50.734;7.086;2023-05-10T11:10:21;3.90;;;0.90;;
68800;SDS011;55784;50.734;7.086;2023-05-10T11:12:51;4.22;;;0.90;;
68800;SDS011;55784;50.734;7.086;2023-05-10T11:15:17;2.30;;;0.75;;
68800;SDS011;55784;50.734;7.086;2023-05-10T11:17:44;2.55;;;0.70;;
68800;SDS011;55784;50.734;7.086;2023-05-10T11:20:13;2.50;;;0.80;;
68800;SDS011;55784;50.734;7.086;2023-05-10T11:22:49;2.35;;;0.80;;
68800;SDS011;55784;50.734;7.086;2023-05-10T11:25:16;3.10;;;0.60;;
68800;SDS011;55784;50.734;7.086;2023-05-10T11:27:41;2.73;;;0.70;;
68800;SDS011;55784;50.734;7.086;2023-05-10T11:30:22;3.47;;;0.90;;
68800;SDS011;55784;50.734;7.086;2023-05-10T11:33:09;3.35;;;1.00;;
68800;SDS011;55784;50.734;7.086;2023-05-10T11:36:03;3.58;;;1.00;;
68800;SDS011;55784;50.734;7.086;2023-05-10T11:38:35;3.67;;;1.00;;
68800;SDS011;55784;50.734;7.086;2023-05-10T11:41:03;3.40;;;0.80;;
68800;SDS011;55784;50.734;7.086;2023-05-10T11:43:28;3.30;;;1.00;;
68800;SDS011;55784;50.734;7.086;2023-05-10T11:45:58;5.28;;;0.95;;
68800;SDS011;55784;50.734;7.086;2023-05-10T11:48:24;2.80;;;0.80;;
68800;SDS011;55784;50.734;7.086;2023-05-10T11:50:52;2.85;;;0.90;;
68800;SDS011;55784;50.734;7.086;2023-05-10T11:53:21;4.57;;;0.90;;
68800;SDS011;55784;50.734;7.086;2023-05-10T11:55:47;2.90;;;1.00;;
68800;SDS011;55784;50.734;7.086;2023-05-10T11:58:13;3.65;;;1.10;;
68800;SDS011;55784;50.734;7.086;2023-05-10T12:00:38;3.53;;;1.10;;
68800;SDS011;55784;50.734;7.086;2023-05-10T12:03:04;4.10;;;1.02;;
68800;SDS011;55784;50.734;7.086;2023-05-10T12:05:31;3.93;;;1.00;;
68800;SDS011;55784;50.734;7.086;2023-05-10T12:08:11;2.73;;;1.00;;
68800;SDS011;55784;50.734;7.086;2023-05-10T12:10:43;4.07;;;1.20;;
68800;SDS011;55784;50.734;7.086;2023-05-10T12:15:51;4.25;;;1.23;;
68800;SDS011;55784;50.734;7.086;2023-05-10T12:18:22;4.55;;;1.30;;
68800;SDS011;55784;50.734;7.086;2023-05-10T12:20:51;4.97;;;1.47;;
68800;SDS011;55784;50.734;7.086;2023-05-10T12:23:20;4.90;;;1.35;;
68800;SDS011;55784;50.734;7.086;2023-05-10T12:25:45;4.33;;;1.23;;
68800;SDS011;55784;50.734;7.086;2023-05-10T12:28:11;3.38;;;0.95;;
68800;SDS011;55784;50.734;7.086;2023-05-10T12:30:37;4.77;;;1.03;;
68800;SDS011;55784;50.734;7.086;2023-05-10T12:33:09;4.65;;;1.10;;
68800;SDS011;55784;50.734;7.086;2023-05-10T12:35:46;3.53;;;1.10;;
68800;SDS011;55784;50.734;7.086;2023-05-10T12:38:25;2.88;;;0.90;;
68800;SDS011;55784;50.734;7.086;2023-05-10T12:40:51;3.65;;;1.10;;
68800;SDS011;55784;50.734;7.086;2023-05-10T12:43:16;3.53;;;0.83;;
68800;SDS011;55784;50.734;7.086;2023-05-10T12:45:42;2.90;;;0.80;;
68800;SDS011;55784;50.734;7.086;2023-05-10T12:48:07;3.83;;;0.90;;
68800;SDS011;55784;50.734;7.086;2023-05-10T12:50:32;4.33;;;1.10;;
68800;SDS011;55784;50.734;7.086;2023-05-10T12:53:01;3.85;;;1.10;;
68800;SDS011;55784;50.734;7.086;2023-05-10T12:55:26;3.60;;;1.10;;
68800;SDS011;55784;50.734;7.086;2023-05-10T12:57:51;4.13;;;1.20;;
68800;SDS011;55784;50.734;7.086;2023-05-10T13:00:16;3.77;;;1.13;;
68800;SDS011;55784;50.734;7.086;2023-05-10T13:02:42;4.87;;;1.30;;
68800;SDS011;55784;50.734;7.086;2023-05-10T13:05:07;9.90;;;3.87;;
68800;SDS011;55784;50.734;7.086;2023-05-10T13:07:36;4.57;;;1.30;;
68800;SDS011;55784;50.734;7.086;2023-05-10T13:10:26;6.25;;;1.52;;
68800;SDS011;55784;50.734;7.086;2023-05-10T13:12:51;5.10;;;1.50;;
68800;SDS011;55784;50.734;7.086;2023-05-10T13:15:33;4.55;;;0.98;;
68800;SDS011;55784;50.734;7.086;2023-05-10T13:23:35;3.53;;;0.93;;
68800;SDS011;55784;50.734;7.086;2023-05-10T13:26:00;6.07;;;1.00;;
68800;SDS011;55784;50.734;7.086;2023-05-10T13:28:26;4.80;;;1.20;;
68800;SDS011;55784;50.734;7.086;2023-05-10T13:30:51;3.53;;;1.10;;
68800;SDS011;55784;50.734;7.086;2023-05-10T13:33:17;4.13;;;1.10;;
68800;SDS011;55784;50.734;7.086;2023-05-10T13:35:45;3.93;;;1.00;;
68800;SDS011;55784;50.734;7.086;2023-05-10T13:38:11;2.50;;;0.80;;
68800;SDS011;55784;50.734;7.086;2023-05-10T13:40:37;4.30;;;1.00;;
68800;SDS011;55784;50.734;7.086;2023-05-10T13:43:03;3.10;;;1.10;;
68800;SDS011;55784;50.734;7.086;2023-05-10T13:45:30;3.23;;;1.20;;
68800;SDS011;55784;50.734;7.086;2023-05-10T13:47:57;3.38;;;1.00;;
68800;SDS011;55784;50.734;7.086;2023-05-10T13:54:16;4.53;;;1.10;;
68800;SDS011;55784;50.734;7.086;2023-05-10T13:56:51;4.05;;;1.20;;
68800;SDS011;55784;50.734;7.086;2023-05-10T13:59:26;4.17;;;1.30;;
68800;SDS011;55784;50.734;7.086;2023-05-10T14:17:32;5.23;;;1.50;;
68800;SDS011;55784;50.734;7.086;2023-05-10T14:20:20;4.53;;;1.30;;
68800;SDS011;55784;50.734;7.086;2023-05-10T14:22:45;4.37;;;1.20;;
68800;SDS011;55784;50.734;7.086;2023-05-10T14:25:11;4.93;;;1.30;;
68800;SDS011;55784;50.734;7.086;2023-05-10T14:27:37;4.38;;;1.42;;
68800;SDS011;55784;50.734;7.086;2023-05-10T14:38:02;4.85;;;1.27;;
68800;SDS011;55784;50.734;7.086;2023-05-10T14:40:34;4.60;;;1.38;;
68800;SDS011;55784;50.734;7.086;2023-05-10T14:43:02;4.43;;;1.40;;
68800;SDS011;55784;50.734;7.086;2023-05-10T14:45:31;5.20;;;2.03;;
68800;SDS011;55784;50.734;7.086;2023-05-10T14:48:00;7.80;;;2.53;;
68800;SDS011;55784;50.734;7.086;2023-05-10T14:50:25;9.07;;;2.70;;
68800;SDS011;55784;50.734;7.086;2023-05-10T14:52:51;7.17;;;2.13;;
68800;SDS011;55784;50.734;7.086;2023-05-10T14:55:16;9.90;;;2.77;;
68800;SDS011;55784;50.734;7.086;2023-05-10T14:57:45;10.40;;;4.33;;
68800;SDS011;55784;50.734;7.086;2023-05-10T15:03:53;14.65;;;5.82;;
68800;SDS011;55784;50.734;7.086;2023-05-10T15:06:30;16.92;;;6.57;;
68800;SDS011;55784;50.734;7.086;2023-05-10T15:09:10;13.00;;;4.53;;
68800;SDS011;55784;50.734;7.086;2023-05-10T15:11:41;8.63;;;3.50;;
68800;SDS011;55784;50.734;7.086;2023-05-10T15:14:07;8.52;;;2.53;;
68800;SDS011;55784;50.734;7.086;2023-05-10T15:16:32;6.18;;;2.00;;
68800;SDS011;55784;50.734;7.086;2023-05-10T15:19:17;6.57;;;2.10;;
68800;SDS011;55784;50.734;7.086;2023-05-10T15:21:49;6.22;;;2.13;;
68800;SDS011;55784;50.734;7.086;2023-05-10T15:24:14;5.93;;;1.80;;
68800;SDS011;55784;50.734;7.086;2023-05-10T15:26:55;5.73;;;1.90;;
68800;SDS011;55784;50.734;7.086;2023-05-10T15:29:21;5.85;;;1.75;;
68800;SDS011;55784;50.734;7.086;2023-05-10T15:31:52;5.57;;;1.60;;
68800;SDS011;55784;50.734;7.086;2023-05-10T15:37:57;6.85;;;1.75;;
68800;SDS011;55784;50.734;7.086;2023-05-10T15:40:23;7.63;;;2.00;;
68800;SDS011;55784;50.734;7.086;2023-05-10T15:42:51;31.60;;;16.27;;
68800;SDS011;55784;50.734;7.086;2023-05-10T15:45:19;19.20;;;9.40;;
68800;SDS011;55784;50.734;7.086;2023-05-10T15:47:48;11.45;;;4.18;;
68800;SDS011;55784;50.734;7.086;2023-05-10T15:50:14;8.27;;;3.07;;
68800;SDS011;55784;50.734;7.086;2023-05-10T15:52:43;10.88;;;4.70;;
68800;SDS011;55784;50.734;7.086;2023-05-10T15:55:08;8.32;;;3.25;;
68800;SDS011;55784;50.734;7.086;2023-05-10T15:57:37;10.10;;;3.93;;
68800;SDS011;55784;50.734;7.086;2023-05-10T16:00:04;6.85;;;2.33;;
68800;SDS011;55784;50.734;7.086;2023-05-10T16:02:30;7.70;;;3.20;;
68800;SDS011;55784;50.734;7.086;2023-05-10T16:04:56;5.80;;;2.00;;
68800;SDS011;55784;50.734;7.086;2023-05-10T16:07:21;5.63;;;2.03;;
68800;SDS011;55784;50.734;7.086;2023-05-10T16:09:46;6.90;;;2.40;;
68800;SDS011;55784;50.734;7.086;2023-05-10T16:12:13;6.88;;;2.50;;
68800;SDS011;55784;50.734;7.086;2023-05-10T16:14:39;7.30;;;2.22;;
68800;SDS011;55784;50.734;7.086;2023-05-10T16:17:04;9.93;;;4.43;;
68800;SDS011;55784;50.734;7.086;2023-05-10T16:19:30;5.77;;;2.07;;
68800;SDS011;55784;50.734;7.086;2023-05-10T16:21:55;5.50;;;2.00;;
68800;SDS011;55784;50.734;7.086;2023-05-10T16:24:21;6.07;;;2.22;;
68800;SDS011;55784;50.734;7.086;2023-05-10T16:26:46;5.23;;;1.90;;
68800;SDS011;55784;50.734;7.086;2023-05-10T16:29:12;5.67;;;1.90;;
68800;SDS011;55784;50.734;7.086;2023-05-10T16:31:37;5.65;;;1.95;;
68800;SDS011;55784;50.734;7.086;2023-05-10T16:34:03;5.50;;;1.90;;
68800;SDS011;55784;50.734;7.086;2023-05-10T16:36:28;5.57;;;1.80;;
68800;SDS011;55784;50.734;7.086;2023-05-10T16:38:54;5.32;;;1.63;;
68800;SDS011;55784;50.734;7.086;2023-05-10T16:41:19;4.33;;;1.50;;
68800;SDS011;55784;50.734;7.086;2023-05-10T16:43:45;4.10;;;1.50;;
68800;SDS011;55784;50.734;7.086;2023-05-10T16:46:11;5.88;;;1.60;;
68800;SDS011;55784;50.734;7.086;2023-05-10T16:48:37;5.70;;;2.40;;
68800;SDS011;55784;50.734;7.086;2023-05-10T16:51:02;8.03;;;2.10;;
68800;SDS011;55784;50.734;7.086;2023-05-10T16:53:31;5.28;;;1.80;;
68800;SDS011;55784;50.734;7.086;2023-05-10T16:55:56;5.80;;;1.70;;
68800;SDS011;55784;50.734;7.086;2023-05-10T16:58:28;5.37;;;1.47;;
68800;SDS011;55784;50.734;7.086;2023-05-10T17:00:53;12.43;;;5.05;;
68800;SDS011;55784;50.734;7.086;2023-05-10T17:03:18;11.67;;;4.10;;
68800;SDS011;55784;50.734;7.086;2023-05-10T17:05:44;11.73;;;3.42;;
68800;SDS011;55784;50.734;7.086;2023-05-10T17:08:10;15.13;;;6.80;;
68800;SDS011;55784;50.734;7.086;2023-05-10T17:10:39;7.67;;;2.30;;
68800;SDS011;55784;50.734;7.086;2023-05-10T17:13:05;8.60;;;3.57;;
68800;SDS011;55784;50.734;7.086;2023-05-10T17:15:31;9.48;;;3.58;;
68800;SDS011;55784;50.734;7.086;2023-05-10T17:17:56;8.80;;;2.60;;
68800;SDS011;55784;50.734;7.086;2023-05-10T17:20:22;7.13;;;2.67;;
68800;SDS011;55784;50.734;7.086;2023-05-10T17:22:47;5.53;;;2.03;;
68800;SDS011;55784;50.734;7.086;2023-05-10T17:25:13;7.93;;;3.10;;
68800;SDS011;55784;50.734;7.086;2023-05-10T17:27:38;6.10;;;1.65;;
68800;SDS011;55784;50.734;7.086;2023-05-10T17:30:04;4.90;;;1.70;;
68800;SDS011;55784;50.734;7.086;2023-05-10T17:32:30;5.00;;;1.52;;
68800;SDS011;55784;50.734;7.086;2023-05-10T17:34:55;5.03;;;1.50;;
68800;SDS011;55784;50.734;7.086;2023-05-10T17:37:21;6.73;;;2.43;;
68800;SDS011;55784;50.734;7.086;2023-05-10T17:39:46;4.70;;;1.60;;
68800;SDS011;55784;50.734;7.086;2023-05-10T17:42:12;5.07;;;1.63;;
68800;SDS011;55784;50.734;7.086;2023-05-10T17:44:38;7.80;;;2.30;;
68800;SDS011;55784;50.734;7.086;2023-05-10T17:47:04;6.30;;;1.40;;
68800;SDS011;55784;50.734;7.086;2023-05-10T17:49:30;4.78;;;1.40;;
68800;SDS011;55784;50.734;7.086;2023-05-10T17:51:55;5.13;;;1.67;;
68800;SDS011;55784;50.734;7.086;2023-05-10T17:54:20;6.13;;;1.43;;
68800;SDS011;55784;50.734;7.086;2023-05-10T17:56:46;6.87;;;2.40;;
68800;SDS011;55784;50.734;7.086;2023-05-10T17:59:11;11.07;;;4.47;;
68800;SDS011;55784;50.734;7.086;2023-05-10T18:01:36;8.83;;;3.27;;
68800;SDS011;55784;50.734;7.086;2023-05-10T18:04:02;16.67;;;5.60;;
68800;SDS011;55784;50.734;7.086;2023-05-10T18:06:28;9.45;;;3.03;;
68800;SDS011;55784;50.734;7.086;2023-05-10T18:08:53;7.37;;;2.53;;
68800;SDS011;55784;50.734;7.086;2023-05-10T18:11:19;11.23;;;3.55;;
68800;SDS011;55784;50.734;7.086;2023-05-10T18:13:46;11.55;;;4.25;;
68800;SDS011;55784;50.734;7.086;2023-05-10T18:16:11;5.00;;;1.60;;
68800;SDS011;55784;50.734;7.086;2023-05-10T18:18:37;6.47;;;2.23;;
68800;SDS011;55784;50.734;7.086;2023-05-10T18:21:03;6.37;;;1.83;;
68800;SDS011;55784;50.734;7.086;2023-05-10T18:23:31;8.93;;;3.10;;
68800;SDS011;55784;50.734;7.086;2023-05-10T18:25:56;5.27;;;1.63;;
68800;SDS011;55784;50.734;7.086;2023-05-10T18:28:24;4.57;;;1.43;;
68800;SDS011;55784;50.734;7.086;2023-05-10T18:30:49;5.15;;;1.90;;
68800;SDS011;55784;50.734;7.086;2023-05-10T18:33:15;4.90;;;1.50;;
68800;SDS011;55784;50.734;7.086;2023-05-10T18:35:40;5.35;;;1.70;;
68800;SDS011;55784;50.734;7.086;2023-05-10T18:38:06;5.70;;;1.83;;
68800;SDS011;55784;50.734;7.086;2023-05-10T18:40:33;5.87;;;1.73;;
68800;SDS011;55784;50.734;7.086;2023-05-10T18:42:59;5.50;;;1.70;;
68800;SDS011;55784;50.734;7.086;2023-05-10T18:45:24;6.27;;;1.80;;
68800;SDS011;55784;50.734;7.086;2023-05-10T18:47:49;5.07;;;1.50;;
68800;SDS011;55784;50.734;7.086;2023-05-10T18:50:15;5.30;;;1.80;;
68800;SDS011;55784;50.734;7.086;2023-05-10T18:52:41;6.72;;;2.47;;
68800;SDS011;55784;50.734;7.086;2023-05-10T18:55:07;6.53;;;2.70;;
68800;SDS011;55784;50.734;7.086;2023-05-10T18:57:32;5.57;;;1.67;;
68800;SDS011;55784;50.734;7.086;2023-05-10T19:00:05;5.82;;;1.90;;
68800;SDS011;55784;50.734;7.086;2023-05-10T19:02:35;5.32;;;1.80;;
68800;SDS011;55784;50.734;7.086;2023-05-10T19:05:01;6.57;;;1.60;;
68800;SDS011;55784;50.734;7.086;2023-05-10T19:07:26;7.63;;;2.60;;
68800;SDS011;55784;50.734;7.086;2023-05-10T19:09:51;5.27;;;1.67;;
68800;SDS011;55784;50.734;7.086;2023-05-10T19:12:16;4.90;;;1.60;;
68800;SDS011;55784;50.734;7.086;2023-05-10T19:14:42;6.17;;;1.90;;
68800;SDS011;55784;50.734;7.086;2023-05-10T19:17:07;5.63;;;2.00;;